sensor_id;sensor_type;location;lat;lon;timestamp;pressure;altitude;pressure_sealevel;temperature;humidity
48527;BME280;34317;51.660;5.824;2023-03-13T00:01:27;100223.84;;;13.63;56.57
48527;BME280;34317;51.660;5.824;2023-03-13T00:03:55;100221.19;;;13.63;56.48
48527;BME280;34317;51.660;5.824;2023-03-13T00:06:25;100218.63;;;13.61;56.61
48527;BME280;34317;51.660;5.824;2023-03-13T00:08:53;100209.78;;;13.61;56.68
48527;BME280;34317;51.660;5.824;2023-03-13T00:11:20;100195.75;;;13.59;56.74
48527;BME280;34317;51.660;5.824;2023-03-13T00:13:47;100195.75;;;13.59;56.78
48527;BME280;34317;51.660;5.824;2023-03-13T00:16:15;100187.78;;;13.59;56.90
48527;BME280;34317;51.660;5.824;2023-03-13T00:18:47;100183.38;;;13.58;57.05
48527;BME280;34317;51.660;5.824;2023-03-13T00:21:15;100172.75;;;13.58;57.00
48527;BME280;34317;51.660;5.824;2023-03-13T00:23:43;100173.72;;;13.57;57.18
48527;BME280;34317;51.660;5.824;2023-03-13T00:26:12;100165.75;;;13.57;57.19
48527;BME280;34317;51.660;5.824;2023-03-13T00:28:40;100164.03;;;13.56;57.26
48527;BME280;34317;51.660;5.824;2023-03-13T00:31:28;100155.28;;;13.54;57.44
48527;BME280;34317;51.660;5.824;2023-03-13T00:33:59;100146.56;;;13.52;57.55
48527;BME280;34317;51.660;5.824;2023-03-13T00:36:28;100139.56;;;13.51;57.58
48527;BME280;34317;51.660;5.824;2023-03-13T00:38:57;100137.84;;;13.50;57.97
48527;BME280;34317;51.660;5.824;2023-03-13T00:41:29;100139.75;;;13.48;58.15
48527;BME280;34317;51.660;5.824;2023-03-13T00:43:57;100138.03;;;13.47;58.00
48527;BME280;34317;51.660;5.824;2023-03-13T00:46:27;100129.31;;;13.44;58.09
48527;BME280;34317;51.660;5.824;2023-03-13T00:48:54;100127.63;;;13.43;58.38
48527;BME280;34317;51.660;5.824;2023-03-13T00:51:23;100122.41;;;13.42;58.54
48527;BME280;34317;51.660;5.824;2023-03-13T00:53:56;100119.84;;;13.40;58.60
48527;BME280;34317;51.660;5.824;2023-03-13T00:56:27;100107.63;;;13.38;58.63
48527;BME280;34317;51.660;5.824;2023-03-13T00:58:54;100102.50;;;13.35;58.81
48527;BME280;34317;51.660;5.824;2023-03-13T01:01:27;100093.88;;;13.31;59.07
48527;BME280;34317;51.660;5.824;2023-03-13T01:03:58;100085.91;;;13.31;59.18
48527;BME280;34317;51.660;5.824;2023-03-13T01:06:28;100081.63;;;13.29;59.32
48527;BME280;34317;51.660;5.824;2023-03-13T01:08:57;100081.72;;;13.27;59.32
48527;BME280;34317;51.660;5.824;2023-03-13T01:11:28;100072.91;;;13.27;59.58
48527;BME280;34317;51.660;5.824;2023-03-13T01:13:58;100063.22;;;13.25;59.65
48527;BME280;34317;51.660;5.824;2023-03-13T01:16:27;100062.25;;;13.27;59.80
48527;BME280;34317;51.660;5.824;2023-03-13T01:18:58;100050.78;;;13.26;59.87
48527;BME280;34317;51.660;5.824;2023-03-13T01:21:26;100041.84;;;13.27;59.83
48527;BME280;34317;51.660;5.824;2023-03-13T01:23:55;100036.50;;;13.27;59.92
48527;BME280;34317;51.660;5.824;2023-03-13T01:26:23;100024.19;;;13.26;60.13
48527;BME280;34317;51.660;5.824;2023-03-13T01:28:51;100021.41;;;13.28;60.27
48527;BME280;34317;51.660;5.824;2023-03-13T01:31:24;100011.63;;;13.28;60.38
48527;BME280;34317;51.660;5.824;2023-03-13T01:33:57;100007.09;;;13.30;60.53
48527;BME280;34317;51.660;5.824;2023-03-13T01:36:25;100011.44;;;13.31;60.56
48527;BME280;34317;51.660;5.824;2023-03-13T01:38:55;99997.19;;;13.32;60.75
48527;BME280;34317;51.660;5.824;2023-03-13T01:41:23;99993.56;;;13.33;60.74
48527;BME280;34317;51.660;5.824;2023-03-13T01:43:51;99982.94;;;13.33;60.82
48527;BME280;34317;51.660;5.824;2023-03-13T01:46:21;99978.34;;;13.35;61.01
48527;BME280;34317;51.660;5.824;2023-03-13T01:49:22;99985.47;;;13.35;61.01
48527;BME280;34317;51.660;5.824;2023-03-13T01:52:04;99973.78;;;13.37;61.31
48527;BME280;34317;51.660;5.824;2023-03-13T01:54:48;99968.25;;;13.40;61.29
48527;BME280;34317;51.660;5.824;2023-03-13T01:57:25;99955.69;;;13.42;61.40
48527;BME280;34317;51.660;5.824;2023-03-13T01:59:56;99945.78;;;13.44;61.43
48527;BME280;34317;51.660;5.824;2023-03-13T02:02:27;99936.75;;;13.47;61.50
48527;BME280;34317;51.660;5.824;2023-03-13T02:04:58;99933.97;;;13.49;61.67
48527;BME280;34317;51.660;5.824;2023-03-13T02:07:30;99932.06;;;13.51;61.66
48527;BME280;34317;51.660;5.824;2023-03-13T02:09:59;99934.47;;;13.54;61.59
48527;BME280;34317;51.660;5.824;2023-03-13T02:12:31;99919.25;;;13.56;61.91
48527;BME280;34317;51.660;5.824;2023-03-13T02:15:07;99901.38;;;13.58;61.88
48527;BME280;34317;51.660;5.824;2023-03-13T02:17:35;99899.47;;;13.60;62.03
48527;BME280;34317;51.660;5.824;2023-03-13T02:20:04;99899.22;;;13.63;62.00
48527;BME280;34317;51.660;5.824;2023-03-13T02:22:51;99891.97;;;13.65;62.14
48527;BME280;34317;51.660;5.824;2023-03-13T02:25:49;99886.44;;;13.68;62.34
48527;BME280;34317;51.660;5.824;2023-03-13T02:28:27;99876.44;;;13.72;62.19
48527;BME280;34317;51.660;5.824;2023-03-13T02:31:01;99871.72;;;13.75;62.38
48527;BME280;34317;51.660;5.824;2023-03-13T02:33:33;99856.38;;;13.79;62.44
48527;BME280;34317;51.660;5.824;2023-03-13T02:36:02;99853.38;;;13.83;62.49
48527;BME280;34317;51.660;5.824;2023-03-13T02:38:32;99838.88;;;13.88;62.54
48527;BME280;34317;51.660;5.824;2023-03-13T02:41:01;99830.66;;;13.91;62.60
48527;BME280;34317;51.660;5.824;2023-03-13T02:43:33;99822.19;;;13.97;62.63
48527;BME280;34317;51.660;5.824;2023-03-13T02:46:11;99818.34;;;14.01;62.67
48527;BME280;34317;51.660;5.824;2023-03-13T02:48:50;99821.72;;;14.03;62.57
48527;BME280;34317;51.660;5.824;2023-03-13T02:51:38;99838.31;;;14.07;62.78
48527;BME280;34317;51.660;5.824;2023-03-13T02:54:11;99827.44;;;14.10;62.78
48527;BME280;34317;51.660;5.824;2023-03-13T02:56:43;99822.75;;;14.13;62.85
48527;BME280;34317;51.660;5.824;2023-03-13T02:59:11;99825.03;;;14.18;62.92
48527;BME280;34317;51.660;5.824;2023-03-13T03:01:42;99829.31;;;14.20;62.60
48527;BME280;34317;51.660;5.824;2023-03-13T03:04:09;99837.16;;;14.22;62.74
48527;BME280;34317;51.660;5.824;2023-03-13T03:06:37;99823.72;;;14.24;62.67
48527;BME280;34317;51.660;5.824;2023-03-13T03:09:04;99823.50;;;14.27;62.97
48527;BME280;34317;51.660;5.824;2023-03-13T03:11:34;99828.59;;;14.30;62.93
48527;BME280;34317;51.660;5.824;2023-03-13T03:14:07;99837.31;;;14.32;63.14
48527;BME280;34317;51.660;5.824;2023-03-13T03:16:38;99826.41;;;14.35;63.26
48527;BME280;34317;51.660;5.824;2023-03-13T03:19:06;99838.53;;;14.39;63.31
48527;BME280;34317;51.660;5.824;2023-03-13T03:21:33;99832.13;;;14.41;63.03
48527;BME280;34317;51.660;5.824;2023-03-13T03:24:01;99826.53;;;14.45;63.36
48527;BME280;34317;51.660;5.824;2023-03-13T03:26:28;99813.97;;;14.47;63.23
48527;BME280;34317;51.660;5.824;2023-03-13T03:28:56;99815.44;;;14.51;63.37
48527;BME280;34317;51.660;5.824;2023-03-13T03:31:23;99824.97;;;14.53;63.25
48527;BME280;34317;51.660;5.824;2023-03-13T03:33:51;99823.03;;;14.55;63.24
48527;BME280;34317;51.660;5.824;2023-03-13T03:36:20;99814.97;;;14.57;63.27
48527;BME280;34317;51.660;5.824;2023-03-13T03:38:49;99812.19;;;14.58;63.42
48527;BME280;34317;51.660;5.824;2023-03-13T03:41:20;99811.94;;;14.62;63.57
48527;BME280;34317;51.660;5.824;2023-03-13T03:43:47;99807.34;;;14.64;63.59
48527;BME280;34317;51.660;5.824;2023-03-13T03:46:17;99808.09;;;14.66;63.57
48527;BME280;34317;51.660;5.824;2023-03-13T03:48:45;99804.19;;;14.70;63.69
48527;BME280;34317;51.660;5.824;2023-03-13T03:51:13;99794.25;;;14.72;63.66
48527;BME280;34317;51.660;5.824;2023-03-13T03:53:42;99800.31;;;14.74;63.91
48527;BME280;34317;51.660;5.824;2023-03-13T03:56:09;99794.75;;;14.77;63.70
48527;BME280;34317;51.660;5.824;2023-03-13T03:58:42;99810.50;;;14.80;63.67
48527;BME280;34317;51.660;5.824;2023-03-13T04:01:15;99800.53;;;14.82;63.74
48527;BME280;34317;51.660;5.824;2023-03-13T04:03:42;99800.31;;;14.85;63.76
48527;BME280;34317;51.660;5.824;2023-03-13T04:06:11;99801.03;;;14.87;63.82
48527;BME280;34317;51.660;5.824;2023-03-13T04:08:38;99802.75;;;14.88;63.70
48527;BME280;34317;51.660;5.824;2023-03-13T04:11:07;99791.81;;;14.91;63.91
48527;BME280;34317;51.660;5.824;2023-03-13T04:13:38;99782.88;;;14.92;63.98
48527;BME280;34317;51.660;5.824;2023-03-13T04:16:06;99780.91;;;14.94;64.08
48527;BME280;34317;51.660;5.824;2023-03-13T04:18:34;99777.16;;;14.97;64.07
48527;BME280;34317;51.660;5.824;2023-03-13T04:21:04;99785.75;;;15.01;63.97
48527;BME280;34317;51.660;5.824;2023-03-13T04:23:58;99776.78;;;15.02;63.89
48527;BME280;34317;51.660;5.824;2023-03-13T04:26:26;99776.53;;;15.05;64.16
48527;BME280;34317;51.660;5.824;2023-03-13T04:28:55;99774.56;;;15.07;64.32
48527;BME280;34317;51.660;5.824;2023-03-13T04:31:38;99779.69;;;15.10;64.21
48527;BME280;34317;51.660;5.824;2023-03-13T04:34:34;99774.09;;;15.13;63.98
48527;BME280;34317;51.660;5.824;2023-03-13T04:37:20;99774.69;;;15.16;64.16
48527;BME280;34317;51.660;5.824;2023-03-13T04:39:58;99767.31;;;15.20;64.12
48527;BME280;34317;51.660;5.824;2023-03-13T04:42:41;99758.19;;;15.23;64.11
48527;BME280;34317;51.660;5.824;2023-03-13T04:45:27;99749.06;;;15.25;64.19
48527;BME280;34317;51.660;5.824;2023-03-13T04:48:17;99747.84;;;15.29;64.08
48527;BME280;34317;51.660;5.824;2023-03-13T04:51:00;99736.94;;;15.32;63.97
48527;BME280;34317;51.660;5.824;2023-03-13T04:53:46;99727.69;;;15.36;64.02
48527;BME280;34317;51.660;5.824;2023-03-13T04:56:26;99725.75;;;15.38;63.96
48527;BME280;34317;51.660;5.824;2023-03-13T04:59:27;99719.91;;;15.45;63.85
48527;BME280;34317;51.660;5.824;2023-03-13T05:01:57;99723.31;;;15.47;63.88
48527;BME280;34317;51.660;5.824;2023-03-13T05:04:59;99720.34;;;15.50;63.87
48527;BME280;34317;51.660;5.824;2023-03-13T05:07:45;99720.13;;;15.53;63.69
48527;BME280;34317;51.660;5.824;2023-03-13T05:10:32;99714.53;;;15.56;63.78
48527;BME280;34317;51.660;5.824;2023-03-13T05:13:18;99713.53;;;15.57;63.44
48527;BME280;34317;51.660;5.824;2023-03-13T05:15:53;99707.13;;;15.60;63.45
48527;BME280;34317;51.660;5.824;2023-03-13T05:18:33;99710.50;;;15.62;63.46
48527;BME280;34317;51.660;5.824;2023-03-13T05:21:25;99703.09;;;15.65;63.89
48527;BME280;34317;51.660;5.824;2023-03-13T05:24:10;99698.47;;;15.67;63.44
48527;BME280;34317;51.660;5.824;2023-03-13T05:26:56;99698.19;;;15.70;63.47
48527;BME280;34317;51.660;5.824;2023-03-13T05:29:38;99702.56;;;15.71;63.53
48527;BME280;34317;51.660;5.824;2023-03-13T05:32:24;99693.47;;;15.74;63.26
48527;BME280;34317;51.660;5.824;2023-03-13T05:35:06;99696.00;;;15.75;63.28
48527;BME280;34317;51.660;5.824;2023-03-13T05:37:52;99687.03;;;15.76;63.34
48527;BME280;34317;51.660;5.824;2023-03-13T05:40:31;99684.06;;;15.80;63.22
48527;BME280;34317;51.660;5.824;2023-03-13T05:43:16;99679.44;;;15.82;63.17
48527;BME280;34317;51.660;5.824;2023-03-13T05:46:03;99682.84;;;15.84;63.21
48527;BME280;34317;51.660;5.824;2023-03-13T05:48:42;99691.56;;;15.86;63.13
48527;BME280;34317;51.660;5.824;2023-03-13T05:51:33;99695.81;;;15.88;63.03
48527;BME280;34317;51.660;5.824;2023-03-13T05:54:25;99707.06;;;15.92;62.94
48527;BME280;34317;51.660;5.824;2023-03-13T05:57:11;99703.28;;;15.94;62.84
48527;BME280;34317;51.660;5.824;2023-03-13T05:59:50;99687.13;;;15.96;62.64
48527;BME280;34317;51.660;5.824;2023-03-13T06:02:37;99703.63;;;16.01;62.75
48527;BME280;34317;51.660;5.824;2023-03-13T06:05:06;99691.69;;;16.05;62.63
48527;BME280;34317;51.660;5.824;2023-03-13T06:07:33;99700.41;;;16.07;62.48
48527;BME280;34317;51.660;5.824;2023-03-13T06:10:00;99701.00;;;16.11;62.45
48527;BME280;34317;51.660;5.824;2023-03-13T06:12:28;99691.72;;;16.15;62.26
48527;BME280;34317;51.660;5.824;2023-03-13T06:14:55;99690.59;;;16.18;62.26
48527;BME280;34317;51.660;5.824;2023-03-13T06:17:30;99702.72;;;16.22;61.80
48527;BME280;34317;51.660;5.824;2023-03-13T06:19:57;99702.44;;;16.25;61.86
48527;BME280;34317;51.660;5.824;2023-03-13T06:22:24;99699.53;;;16.28;61.77
48527;BME280;34317;51.660;5.824;2023-03-13T06:24:51;99701.91;;;16.31;61.57
48527;BME280;34317;51.660;5.824;2023-03-13T06:27:18;99691.94;;;16.33;61.58
48527;BME280;34317;51.660;5.824;2023-03-13T06:29:45;99695.19;;;16.37;61.46
48527;BME280;34317;51.660;5.824;2023-03-13T06:32:12;99697.72;;;16.38;61.26
48527;BME280;34317;51.660;5.824;2023-03-13T06:34:39;99674.38;;;16.40;61.19
48527;BME280;34317;51.660;5.824;2023-03-13T06:37:06;99688.44;;;16.42;61.07
48527;BME280;34317;51.660;5.824;2023-03-13T06:39:34;99682.84;;;16.45;61.16
48527;BME280;34317;51.660;5.824;2023-03-13T06:42:01;99685.25;;;16.48;60.79
48527;BME280;34317;51.660;5.824;2023-03-13T06:44:28;99687.63;;;16.51;60.57
48527;BME280;34317;51.660;5.824;2023-03-13T06:46:55;99683.00;;;16.53;60.68
48527;BME280;34317;51.660;5.824;2023-03-13T06:49:22;99677.53;;;16.55;60.58
48527;BME280;34317;51.660;5.824;2023-03-13T06:51:49;99686.25;;;16.57;60.38
48527;BME280;34317;51.660;5.824;2023-03-13T06:54:16;99677.25;;;16.58;60.33
48527;BME280;34317;51.660;5.824;2023-03-13T06:56:43;99691.34;;;16.60;60.00
48527;BME280;34317;51.660;5.824;2023-03-13T06:59:10;99695.56;;;16.63;60.11
48527;BME280;34317;51.660;5.824;2023-03-13T07:01:37;99687.41;;;16.64;60.22
48527;BME280;34317;51.660;5.824;2023-03-13T07:04:05;99683.59;;;16.67;59.94
48527;BME280;34317;51.660;5.824;2023-03-13T07:06:32;99689.69;;;16.69;59.91
48527;BME280;34317;51.660;5.824;2023-03-13T07:08:59;99686.00;;;16.70;59.60
48527;BME280;34317;51.660;5.824;2023-03-13T07:11:26;99689.38;;;16.72;59.76
48527;BME280;34317;51.660;5.824;2023-03-13T07:13:54;99680.41;;;16.73;59.73
48527;BME280;34317;51.660;5.824;2023-03-13T07:16:41;99678.44;;;16.75;59.75
48527;BME280;34317;51.660;5.824;2023-03-13T07:19:08;99683.66;;;16.77;59.42
48527;BME280;34317;51.660;5.824;2023-03-13T07:21:35;99679.13;;;16.77;59.50
48527;BME280;34317;51.660;5.824;2023-03-13T07:24:03;99674.50;;;16.79;59.37
48527;BME280;34317;51.660;5.824;2023-03-13T07:26:30;99678.88;;;16.80;59.33
48527;BME280;34317;51.660;5.824;2023-03-13T07:28:58;99681.28;;;16.83;59.18
48527;BME280;34317;51.660;5.824;2023-03-13T07:31:25;99680.31;;;16.84;59.13
48527;BME280;34317;51.660;5.824;2023-03-13T07:33:53;99675.66;;;16.86;58.95
48527;BME280;34317;51.660;5.824;2023-03-13T07:36:22;99670.03;;;16.89;59.04
48527;BME280;34317;51.660;5.824;2023-03-13T07:38:50;99666.38;;;16.90;59.01
48527;BME280;34317;51.660;5.824;2023-03-13T07:41:19;99671.47;;;16.93;58.84
48527;BME280;34317;51.660;5.824;2023-03-13T07:43:46;99676.50;;;16.97;58.82
48527;BME280;34317;51.660;5.824;2023-03-13T07:46:17;99669.19;;;16.99;58.62
48527;BME280;34317;51.660;5.824;2023-03-13T07:48:45;99672.56;;;17.01;58.47
48527;BME280;34317;51.660;5.824;2023-03-13T07:51:15;99675.13;;;17.02;58.64
48527;BME280;34317;51.660;5.824;2023-03-13T07:53:44;99683.72;;;17.06;58.68
48527;BME280;34317;51.660;5.824;2023-03-13T07:56:16;99673.72;;;17.08;58.73
48527;BME280;34317;51.660;5.824;2023-03-13T07:58:44;99677.09;;;17.10;58.70
48527;BME280;34317;51.660;5.824;2023-03-13T08:01:13;99675.13;;;17.12;58.39
48527;BME280;34317;51.660;5.824;2023-03-13T08:03:40;99663.31;;;17.15;58.33
48527;BME280;34317;51.660;5.824;2023-03-13T08:06:10;99677.38;;;17.17;58.39
48527;BME280;34317;51.660;5.824;2023-03-13T08:08:38;99674.56;;;17.18;58.23
48527;BME280;34317;51.660;5.824;2023-03-13T08:11:08;99677.25;;;17.18;58.34
48527;BME280;34317;51.660;5.824;2023-03-13T08:13:37;99676.25;;;17.19;58.37
48527;BME280;34317;51.660;5.824;2023-03-13T08:16:12;99676.25;;;17.19;58.22
48527;BME280;34317;51.660;5.824;2023-03-13T08:18:40;99674.56;;;17.18;58.37
48527;BME280;34317;51.660;5.824;2023-03-13T08:21:10;99683.00;;;17.23;58.26
48527;BME280;34317;51.660;5.824;2023-03-13T08:23:38;99665.00;;;17.25;58.30
48527;BME280;34317;51.660;5.824;2023-03-13T08:26:07;99660.19;;;17.29;58.30
48527;BME280;34317;51.660;5.824;2023-03-13T08:28:35;99654.28;;;17.35;58.04
48527;BME280;34317;51.660;5.824;2023-03-13T08:31:11;99659.19;;;17.40;58.29
48527;BME280;34317;51.660;5.824;2023-03-13T08:33:41;99654.28;;;17.45;58.14
48527;BME280;34317;51.660;5.824;2023-03-13T08:36:14;99649.47;;;17.48;57.99
48527;BME280;34317;51.660;5.824;2023-03-13T08:38:44;99644.69;;;17.52;57.85
48527;BME280;34317;51.660;5.824;2023-03-13T08:41:15;99653.13;;;17.57;57.86
48527;BME280;34317;51.660;5.824;2023-03-13T08:43:43;99636.78;;;17.60;57.98
48527;BME280;34317;51.660;5.824;2023-03-13T08:46:10;99654.25;;;17.64;57.78
48527;BME280;34317;51.660;5.824;2023-03-13T08:48:38;99658.63;;;17.65;57.56
48527;BME280;34317;51.660;5.824;2023-03-13T08:51:07;99646.50;;;17.61;57.77
48527;BME280;34317;51.660;5.824;2023-03-13T08:53:36;99649.19;;;17.61;57.48
48527;BME280;34317;51.660;5.824;2023-03-13T08:56:04;99648.31;;;17.61;57.71
48527;BME280;34317;51.660;5.824;2023-03-13T08:58:31;99636.78;;;17.60;57.62
48527;BME280;34317;51.660;5.824;2023-03-13T09:01:07;99630.59;;;17.60;57.49
48527;BME280;34317;51.660;5.824;2023-03-13T09:03:35;99640.44;;;17.59;57.36
48527;BME280;34317;51.660;5.824;2023-03-13T09:06:03;99631.41;;;17.60;57.20
48527;BME280;34317;51.660;5.824;2023-03-13T09:08:33;99610.84;;;17.61;57.29
48527;BME280;34317;51.660;5.824;2023-03-13T09:11:02;99628.47;;;17.63;57.11
48527;BME280;34317;51.660;5.824;2023-03-13T09:13:32;99635.22;;;17.67;57.06
48527;BME280;34317;51.660;5.824;2023-03-13T09:16:02;99631.38;;;17.70;56.94
48527;BME280;34317;51.660;5.824;2023-03-13T09:18:30;99633.66;;;17.75;56.78
48527;BME280;34317;51.660;5.824;2023-03-13T09:20:58;99613.63;;;17.79;56.99
48527;BME280;34317;51.660;5.824;2023-03-13T09:23:25;99612.22;;;17.84;56.84
48527;BME280;34317;51.660;5.824;2023-03-13T09:25:55;99612.47;;;17.91;56.99
48527;BME280;34317;51.660;5.824;2023-03-13T09:28:24;99607.22;;;17.99;56.62
48527;BME280;34317;51.660;5.824;2023-03-13T09:30:52;99605.09;;;18.03;56.68
48527;BME280;34317;51.660;5.824;2023-03-13T09:33:21;99605.34;;;18.09;56.99
48527;BME280;34317;51.660;5.824;2023-03-13T09:35:51;99592.22;;;18.16;56.61
48527;BME280;34317;51.660;5.824;2023-03-13T09:38:21;99598.13;;;18.20;56.35
48527;BME280;34317;51.660;5.824;2023-03-13T09:40:50;99580.75;;;18.24;56.32
48527;BME280;34317;51.660;5.824;2023-03-13T09:46:24;99574.16;;;18.36;56.59
48527;BME280;34317;51.660;5.824;2023-03-13T09:49:36;99560.53;;;18.47;56.72
48527;BME280;34317;51.660;5.824;2023-03-13T09:52:37;99552.28;;;18.59;56.70
48527;BME280;34317;51.660;5.824;2023-03-13T09:55:20;99558.09;;;18.72;56.34
48527;BME280;34317;51.660;5.824;2023-03-13T09:57:58;99555.22;;;18.83;56.29
48527;BME280;34317;51.660;5.824;2023-03-13T10:00:28;99536.19;;;18.95;56.01
48527;BME280;34317;51.660;5.824;2023-03-13T10:05:48;99541.41;;;19.14;55.35
48527;BME280;34317;51.660;5.824;2023-03-13T10:08:21;99547.84;;;19.21;55.24
48527;BME280;34317;51.660;5.824;2023-03-13T10:10:54;99544.81;;;19.24;55.01
48527;BME280;34317;51.660;5.824;2023-03-13T10:13:53;99557.94;;;19.28;54.77
48527;BME280;34317;51.660;5.824;2023-03-13T10:16:26;99546.38;;;19.27;54.38
48527;BME280;34317;51.660;5.824;2023-03-13T10:18:57;99545.50;;;19.26;54.32
48527;BME280;34317;51.660;5.824;2023-03-13T10:21:35;99534.75;;;19.26;54.21
48527;BME280;34317;51.660;5.824;2023-03-13T10:26:42;99529.09;;;19.30;54.06
48527;BME280;34317;51.660;5.824;2023-03-13T10:29:23;99523.72;;;19.30;53.67
48527;BME280;34317;51.660;5.824;2023-03-13T10:31:59;99528.78;;;19.33;53.78
48527;BME280;34317;51.660;5.824;2023-03-13T10:34:32;99522.78;;;19.39;53.73
48527;BME280;34317;51.660;5.824;2023-03-13T10:37:18;99523.31;;;19.42;53.41
48527;BME280;34317;51.660;5.824;2023-03-13T10:39:45;99545.31;;;19.46;52.81
48527;BME280;34317;51.660;5.824;2023-03-13T10:44:48;99529.19;;;19.46;53.11
48527;BME280;34317;51.660;5.824;2023-03-13T10:47:15;99518.28;;;19.48;52.85
48527;BME280;34317;51.660;5.824;2023-03-13T10:49:50;99506.69;;;19.47;52.67
48527;BME280;34317;51.660;5.824;2023-03-13T10:52:46;99504.00;;;19.47;53.00
48527;BME280;34317;51.660;5.824;2023-03-13T10:55:22;99501.19;;;19.49;52.51
48527;BME280;34317;51.660;5.824;2023-03-13T10:58:19;99496.31;;;19.52;52.82
48527;BME280;34317;51.660;5.824;2023-03-13T11:00:49;99494.00;;;19.57;52.74
48527;BME280;34317;51.660;5.824;2023-03-13T11:03:25;99498.72;;;19.63;52.60
48527;BME280;34317;51.660;5.824;2023-03-13T11:05:55;99503.78;;;19.67;52.29
48527;BME280;34317;51.660;5.824;2023-03-13T11:08:24;99515.91;;;19.71;52.23
48527;BME280;34317;51.660;5.824;2023-03-13T11:11:04;99485.88;;;19.75;52.19
48527;BME280;34317;51.660;5.824;2023-03-13T11:13:42;99488.41;;;19.77;52.22
48527;BME280;34317;51.660;5.824;2023-03-13T11:16:21;99481.03;;;19.79;51.94
48527;BME280;34317;51.660;5.824;2023-03-13T11:19:00;99479.00;;;19.81;52.09
48527;BME280;34317;51.660;5.824;2023-03-13T11:22:06;99482.38;;;19.83;52.04
48527;BME280;34317;51.660;5.824;2023-03-13T11:24:43;99475.00;;;19.85;51.81
48527;BME280;34317;51.660;5.824;2023-03-13T11:32:44;99463.28;;;19.94;51.71
48527;BME280;34317;51.660;5.824;2023-03-13T11:35:20;99483.44;;;19.98;51.33
48527;BME280;34317;51.660;5.824;2023-03-13T11:37:51;99471.38;;;20.02;51.10
48527;BME280;34317;51.660;5.824;2023-03-13T11:40:36;99471.03;;;20.06;51.15
48527;BME280;34317;51.660;5.824;2023-03-13T11:48:49;99470.41;;;20.12;50.36
48527;BME280;34317;51.660;5.824;2023-03-13T11:51:57;99454.75;;;20.15;50.49
48527;BME280;34317;51.660;5.824;2023-03-13T11:54:54;99474.44;;;20.16;50.00
48527;BME280;34317;51.660;5.824;2023-03-13T11:57:29;99457.44;;;20.15;49.67
48527;BME280;34317;51.660;5.824;2023-03-13T12:05:49;99439.81;;;20.13;49.61
48527;BME280;34317;51.660;5.824;2023-03-13T12:08:24;99418.81;;;20.16;49.66
48527;BME280;34317;51.660;5.824;2023-03-13T12:14:21;99405.88;;;20.28;49.17
48527;BME280;34317;51.660;5.824;2023-03-13T12:16:51;99412.59;;;20.32;49.18
48527;BME280;34317;51.660;5.824;2023-03-13T12:19:29;99399.16;;;20.40;49.55
48527;BME280;34317;51.660;5.824;2023-03-13T12:22:07;99412.28;;;20.52;48.96
48527;BME280;34317;51.660;5.824;2023-03-13T12:24:47;99390.78;;;20.60;48.81
48527;BME280;34317;51.660;5.824;2023-03-13T12:27:25;99393.13;;;20.63;48.57
48527;BME280;34317;51.660;5.824;2023-03-13T12:30:04;99384.03;;;20.64;48.50
48527;BME280;34317;51.660;5.824;2023-03-13T12:32:36;99399.50;;;20.62;48.58
48527;BME280;34317;51.660;5.824;2023-03-13T12:37:52;99380.31;;;20.49;48.27
48527;BME280;34317;51.660;5.824;2023-03-13T12:43:10;99370.94;;;20.36;48.31
48527;BME280;34317;51.660;5.824;2023-03-13T12:46:00;99378.34;;;20.34;48.44
48527;BME280;34317;51.660;5.824;2023-03-13T12:49:03;99363.53;;;20.30;48.39
48527;BME280;34317;51.660;5.824;2023-03-13T13:00:44;99347.41;;;20.38;48.26
48527;BME280;34317;51.660;5.824;2023-03-13T13:06:12;99361.84;;;20.54;48.12
48527;BME280;34317;51.660;5.824;2023-03-13T13:16:43;99356.41;;;20.95;47.58
48527;BME280;34317;51.660;5.824;2023-03-13T13:19:42;99347.09;;;21.06;47.48
48527;BME280;34317;51.660;5.824;2023-03-13T13:30:00;99329.66;;;21.33;46.49
48527;BME280;34317;51.660;5.824;2023-03-13T13:32:36;99332.69;;;21.38;46.17
48527;BME280;34317;51.660;5.824;2023-03-13T13:35:19;99339.03;;;21.45;46.44
48527;BME280;34317;51.660;5.824;2023-03-13T13:37:47;99304.34;;;21.50;46.29
48527;BME280;34317;51.660;5.824;2023-03-13T13:40:22;99336.31;;;21.53;46.07
48527;BME280;34317;51.660;5.824;2023-03-13T13:45:31;99330.28;;;21.51;45.89
48527;BME280;34317;51.660;5.824;2023-03-13T13:48:26;99335.34;;;21.46;45.94
48527;BME280;34317;51.660;5.824;2023-03-13T13:53:49;99315.38;;;21.32;45.94
48527;BME280;34317;51.660;5.824;2023-03-13T14:02:12;99277.91;;;21.14;46.02
48527;BME280;34317;51.660;5.824;2023-03-13T14:07:46;99291.56;;;21.13;45.97
48527;BME280;34317;51.660;5.824;2023-03-13T14:13:23;99277.31;;;21.04;45.59
48527;BME280;34317;51.660;5.824;2023-03-13T14:15:51;99274.78;;;21.03;45.48
48527;BME280;34317;51.660;5.824;2023-03-13T14:18:21;99273.09;;;21.02;45.36
48527;BME280;34317;51.660;5.824;2023-03-13T14:23:28;99274.63;;;20.96;45.20
48527;BME280;34317;51.660;5.824;2023-03-13T14:25:55;99264.25;;;20.93;45.36
48527;BME280;34317;51.660;5.824;2023-03-13T14:28:27;99257.50;;;20.89;45.02
48527;BME280;34317;51.660;5.824;2023-03-13T14:30:56;99264.91;;;20.87;45.09
48527;BME280;34317;51.660;5.824;2023-03-13T14:33:25;99259.19;;;20.90;45.14
48527;BME280;34317;51.660;5.824;2023-03-13T14:35:53;99253.09;;;20.96;45.51
48527;BME280;34317;51.660;5.824;2023-03-13T14:38:26;99252.41;;;21.02;44.88
48527;BME280;34317;51.660;5.824;2023-03-13T14:40:54;99247.97;;;21.09;44.79
48527;BME280;34317;51.660;5.824;2023-03-13T14:45:59;99245.63;;;21.14;44.18
48527;BME280;34317;51.660;5.824;2023-03-13T14:48:33;99235.84;;;21.13;44.18
48527;BME280;34317;51.660;5.824;2023-03-13T14:51:09;99251.34;;;21.11;44.19
48527;BME280;34317;51.660;5.824;2023-03-13T14:54:02;99233.53;;;21.10;44.17
48527;BME280;34317;51.660;5.824;2023-03-13T14:56:38;99232.50;;;21.11;44.07
48527;BME280;34317;51.660;5.824;2023-03-13T14:59:17;99224.41;;;21.11;43.90
48527;BME280;34317;51.660;5.824;2023-03-13T15:01:45;99221.56;;;21.13;43.99